PDT,Max TemperatureF,Mean TemperatureF,Min TemperatureF,Max Dew PointF,MeanDew PointF,Min DewpointF,Max Humidity, Mean Humidity, Min Humidity, Max Sea Level PressureIn, Mean Sea Level PressureIn, Min Sea Level PressureIn, Max VisibilityMiles, Mean VisibilityMiles, Min VisibilityMiles, Max Wind SpeedMPH, Mean Wind SpeedMPH, Max Gust SpeedMPH,PrecipitationIn, CloudCover, Events, WindDirDegrees
2013-8-1,69,62,55,56,53,52,96,79,60,30.10,30.08,30.06,10,10,7,15,6,17,0.00,8,,217
2013-8-2,64,60,55,60,56,53,98,86,70,30.15,30.13,30.08,10,10,6,10,6,,0.03,8,Rain,233
2013-8-3,74,66,59,59,57,55,100,78,54,30.15,30.12,30.07,10,10,7,9,4,,0.00,7,Rain,349
2013-8-4,81,68,56,59,57,54,94,71,46,30.08,30.04,29.96,10,10,10,12,4,17,0.00,2,Rain,357
2013-8-5,85,69,53,60,56,52,100,78,36,30.04,30.00,29.95,10,7,0,9,3,,0.00,0,Fog,219
2013-8-6,85,70,54,57,54,51,94,62,30,30.04,29.99,29.93,10,10,10,8,3,,0.00,0,,274
2013-8-7,86,68,51,59,54,50,100,67,29,30.05,30.00,29.97,10,9,1,9,4,,0.00,1,,263
2013-8-8,82,70,58,60,57,55,94,72,42,30.06,30.03,29.96,10,10,10,9,3,,0.00,3,Rain,255
2013-8-9,81,67,53,59,56,52,97,72,42,29.98,29.94,29.87,10,10,2,8,3,,0.01,2,Rain-Thunderstorm,266
2013-8-10,77,68,59,63,59,53,100,84,57,30.05,29.98,29.89,10,8,1,8,4,,0.06,6,Rain-Thunderstorm,262
2013-8-11,75,66,57,57,54,52,83,70,54,30.09,30.06,30.01,10,10,10,8,5,,0.00,6,Rain,245
2013-8-12,76,67,59,55,54,52,82,67,48,30.09,30.07,30.04,10,10,10,10,3,,0.00,7,,275
2013-8-13,80,67,54,54,53,50,91,60,38,30.13,30.06,29.95,10,10,10,9,3,,0.00,2,Rain,306
2013-8-14,84,68,53,63,57,51,100,74,38,29.99,29.96,29.93,10,10,10,13,4,21,0.09,2,Rain,287
2013-8-15,68,64,61,66,64,61,100,95,85,30.01,29.98,29.95,10,7,1,6,1,,0.03,7,Rain,162
2013-8-16,84,72,60,63,61,51,100,84,32,30.04,30.01,29.97,10,8,0,10,2,18,0.00,5,Fog-Rain,254
2013-8-17,77,68,59,60,57,54,83,69,53,30.11,30.07,30.04,10,9,2,10,5,21,0.00,4,,246
2013-8-18,77,66,54,59,56,53,100,73,52,30.15,30.12,30.10,10,10,8,14,5,20,0.00,3,,238
2013-8-19,79,66,54,57,55,52,95,65,46,30.14,30.11,30.08,10,10,10,12,5,17,0.00,4,Rain,261
2013-8-20,77,64,51,54,50,44,100,64,35,30.18,30.14,30.09,10,9,1,12,5,18,0.00,1,,16
2013-8-21,80,63,46,52,50,46,95,60,36,30.10,30.04,29.96,10,10,10,13,4,,0.00,0,,47
2013-8-22,82,66,52,54,52,49,94,61,35,29.96,29.91,29.84,10,10,10,12,2,,0.00,1,,311
2013-8-23,75,67,60,57,56,53,83,69,50,29.92,29.90,29.88,10,10,10,16,9,23,0.00,7,,233
2013-8-24,74,66,59,59,56,50,100,75,45,29.95,29.92,29.88,10,10,7,10,4,,0.00,8,Rain,223
2013-8-25,72,60,50,56,53,50,100,75,49,29.96,29.93,29.89,10,9,2,8,3,,0.00,4,Rain,178
2013-8-26,77,68,58,59,57,51,100,83,43,29.98,29.92,29.87,10,10,7,17,3,29,0.04,7,Rain,208
2013-8-27,79,68,59,63,59,57,100,77,52,29.98,29.90,29.81,10,10,10,12,3,,0.00,6,Rain,354
2013-8-28,78,69,61,64,62,60,100,83,59,29.93,29.88,29.85,10,10,4,7,3,,0.24,6,Rain,297
2013-8-29,75,68,62,67,64,62,100,92,74,30.06,29.94,29.86,10,9,2,13,5,18,0.40,7,Rain,192
2013-8-30,77,68,59,63,58,53,100,75,45,30.17,30.12,30.06,10,10,9,12,5,,0.00,4,,216
2013-8-31,80,65,50,57,54,50,100,75,42,30.10,29.99,29.86,10,9,2,12,3,,0.00,0,,42